Time;durP1;ratioP1;P1;durP2;ratioP2;P2;SDS_P1;SDS_P2;PMS_P1;PMS_P2;Temp;Humidity;BMP_temperature;BMP_pressure;BME280_temperature;BME280_humidity;BME280_pressure;Samples;Min_cycle;Max_cycle;Signal;HPM_P1;HPM_P2
2022/04/27 00:02:16;;;;;;;12.30;7.93;;;5.60;99.90;;;;;;21159503;28;20390;-76
2022/04/27 00:12:17;;;;;;;15.27;8.80;;;5.40;99.90;;;;;;21156154;28;20038;-77
2022/04/27 00:22:17;;;;;;;12.32;7.80;;;5.40;99.90;;;;;;21166904;28;20463;-77
2022/04/27 00:32:18;;;;;;;15.48;8.18;;;5.40;99.90;;;;;;21173842;28;20063;-77
2022/04/27 00:42:24;;;;;;;15.05;8.10;;;4.90;99.90;;;;;;21166230;28;20020;-77
2022/04/27 00:52:25;;;;;;;16.38;8.13;;;5.10;99.90;;;;;;21160395;28;20033;-77
2022/04/27 01:02:26;;;;;;;18.95;9.60;;;4.70;99.90;;;;;;21163759;28;20366;-77
2022/04/27 01:12:27;;;;;;;15.65;9.63;;;4.60;99.90;;;;;;21174789;27;20027;-77
2022/04/27 01:22:39;;;;;;;17.30;10.00;;;4.40;99.90;;;;;;21161845;28;20425;-77
2022/04/27 01:32:40;;;;;;;16.27;9.27;;;4.50;99.90;;;;;;21165813;28;20043;-77
2022/04/27 01:42:40;;;;;;;;;;;4.40;99.90;;;;;;21166364;28;20493;-77
2022/04/27 02:03:01;;;;;;;17.20;8.50;;;4.20;99.90;;;;;;21150159;28;20338;-77
2022/04/27 02:13:02;;;;;;;;;;;4.20;99.90;;;;;;21164612;28;20032;-77
2022/04/27 02:23:03;;;;;;;15.07;7.40;;;4.10;99.90;;;;;;21164841;28;20334;-77
2022/04/27 02:33:04;;;;;;;;;;;4.10;99.90;;;;;;21158491;28;20032;-76
2022/04/27 02:43:05;;;;;;;277.42;17.13;;;4.00;99.90;;;;;;21153037;28;19911;-77
2022/04/27 02:53:06;;;;;;;;;;;3.90;99.90;;;;;;21143417;28;20035;-77
2022/04/27 03:03:09;;;;;;;18.45;10.00;;;3.70;99.90;;;;;;21146980;28;20436;-76
2022/04/27 03:13:11;;;;;;;16.08;9.30;;;3.70;99.90;;;;;;21139152;28;20020;-77
2022/04/27 03:23:12;;;;;;;14.88;7.97;;;3.70;99.90;;;;;;21152256;28;20043;-76
2022/04/27 03:33:13;;;;;;;;;;;3.70;99.90;;;;;;21144830;28;20032;-77
2022/04/27 03:43:15;;;;;;;20.50;9.25;;;3.70;99.90;;;;;;21155415;28;19921;-76
2022/04/27 03:53:16;;;;;;;13.98;7.78;;;3.90;99.90;;;;;;21175454;27;20043;-77
2022/04/27 04:03:17;;;;;;;;;;;4.10;99.90;;;;;;21161414;28;20052;-76
2022/04/27 04:13:19;;;;;;;42.17;8.07;;;4.20;99.90;;;;;;21190918;28;19914;-77
2022/04/27 04:23:47;;;;;;;539.92;28.05;;;4.20;99.90;;;;;;21243304;28;20039;-76
2022/04/27 04:33:48;;;;;;;449.45;29.25;;;4.00;99.90;;;;;;21233044;28;20038;-77
2022/04/27 04:43:50;;;;;;;51.17;7.03;;;3.90;99.90;;;;;;21229323;28;20031;-77
2022/04/27 04:53:55;;;;;;;12.05;7.78;;;3.70;99.90;;;;;;21223920;28;20031;-77
2022/04/27 05:04:11;;;;;;;15.88;9.50;;;3.80;99.90;;;;;;21219045;27;20019;-76
2022/04/27 05:14:32;;;;;;;19.45;10.30;;;4.30;99.90;;;;;;21164886;28;20038;-77
2022/04/27 05:24:53;;;;;;;17.60;11.07;;;4.60;99.90;;;;;;21168820;28;20118;-77
2022/04/27 05:35:05;;;;;;;18.20;10.18;;;5.20;99.90;;;;;;21176236;28;20112;-76
2022/04/27 05:45:11;;;;;;;18.38;9.85;;;5.90;99.90;;;;;;21178168;28;20508;-77
2022/04/27 05:55:43;;;;;;;18.50;10.55;;;6.00;99.90;;;;;;21179696;28;20438;-77
2022/04/27 06:06:02;;;;;;;15.65;9.50;;;6.60;99.90;;;;;;21168142;28;20035;-77
2022/04/27 06:16:04;;;;;;;25.67;11.98;;;6.70;99.90;;;;;;21169742;28;20036;-78
2022/04/27 06:26:24;;;;;;;20.77;11.18;;;6.80;99.90;;;;;;21174220;28;20051;-77
2022/04/27 06:36:26;;;;;;;23.35;13.23;;;7.30;99.90;;;;;;21167722;28;20020;-77
2022/04/27 06:46:29;;;;;;;23.42;12.10;;;7.80;99.90;;;;;;21167374;28;20031;-77
2022/04/27 06:56:48;;;;;;;24.95;13.65;;;8.50;99.90;;;;;;21161357;28;20067;-77
2022/04/27 07:07:20;;;;;;;24.13;13.13;;;8.80;99.90;;;;;;21144661;28;20512;-77
2022/04/27 07:17:20;;;;;;;27.53;12.63;;;9.40;99.90;;;;;;21162379;28;20048;-77
2022/04/27 07:27:21;;;;;;;22.67;12.17;;;10.20;99.90;;;;;;21162998;28;20024;-77
2022/04/27 07:37:22;;;;;;;18.53;10.63;;;10.70;99.90;;;;;;21166134;28;20081;-77
2022/04/27 07:47:23;;;;;;;13.97;8.23;;;11.00;99.90;;;;;;21168637;28;20036;-77
2022/04/27 07:57:27;;;;;;;9.53;6.37;;;11.90;99.90;;;;;;21159622;28;20060;-77
2022/04/27 08:07:38;;;;;;;8.38;5.07;;;12.80;99.90;;;;;;21159865;28;20098;-77
2022/04/27 08:17:52;;;;;;;6.20;4.20;;;13.70;99.90;;;;;;21163997;28;20027;-77
2022/04/27 08:27:53;;;;;;;6.35;4.25;;;14.10;99.90;;;;;;21148947;28;20042;-77
2022/04/27 08:37:54;;;;;;;8.00;4.50;;;14.40;99.90;;;;;;21133905;28;20065;-77
2022/04/27 08:47:56;;;;;;;7.17;4.80;;;14.20;99.90;;;;;;21146354;28;20028;-77
2022/04/27 08:58:10;;;;;;;7.20;4.40;;;14.40;99.90;;;;;;21173238;28;20032;-78
2022/04/27 09:08:11;;;;;;;6.53;4.53;;;15.50;99.90;;;;;;21170785;28;20114;-78
2022/04/27 09:28:31;;;;;;;13.15;5.30;;;16.60;99.90;;;;;;21097123;28;20055;-77
2022/04/27 09:38:42;;;;;;;7.73;4.93;;;17.70;99.90;;;;;;21111266;28;20119;-78
2022/04/27 09:48:46;;;;;;;7.65;5.13;;;17.90;99.90;;;;;;21171127;28;20432;-78
2022/04/27 09:58:47;;;;;;;9.65;5.10;;;17.00;99.90;;;;;;21175377;28;20481;-79
2022/04/27 10:08:51;;;;;;;8.80;4.93;;;15.40;99.90;;;;;;21178584;28;20036;-78
2022/04/27 10:18:52;;;;;;;7.45;4.72;;;14.50;99.90;;;;;;21175709;28;20083;-77
2022/04/27 10:29:00;;;;;;;9.32;5.63;;;14.40;99.90;;;;;;21173495;28;20063;-79
2022/04/27 10:39:12;;;;;;;10.23;5.28;;;13.90;99.90;;;;;;21181545;28;20089;-79
2022/04/27 10:49:31;;;;;;;11.88;6.95;;;14.10;99.90;;;;;;21172420;28;20575;-78
2022/04/27 10:59:56;;;;;;;7.05;4.55;;;14.50;99.90;;;;;;21173233;28;20051;-78
2022/04/27 11:10:12;;;;;;;6.78;4.57;;;15.30;99.90;;;;;;21175501;28;20118;-78
2022/04/27 11:20:43;;;;;;;9.68;5.15;;;15.80;99.90;;;;;;21166011;28;20035;-78
2022/04/27 11:30:44;;;;;;;7.85;4.93;;;16.60;99.90;;;;;;21152344;28;20048;-77
2022/04/27 11:40:46;;;;;;;7.15;4.43;;;18.40;99.90;;;;;;21164527;28;20421;-77
2022/04/27 11:50:48;;;;;;;6.53;4.28;;;16.70;99.90;;;;;;21162673;28;20502;-77
2022/04/27 12:00:54;;;;;;;8.57;5.20;;;18.60;99.90;;;;;;21163320;28;20032;-79
2022/04/27 12:10:55;;;;;;;6.50;3.95;;;19.80;99.90;;;;;;21166686;28;20389;-79
2022/04/27 12:20:57;;;;;;;4.50;3.43;;;18.80;99.90;;;;;;21163780;28;20035;-78
2022/04/27 12:31:03;;;;;;;5.18;3.63;;;20.00;99.90;;;;;;21161818;28;20466;-78
2022/04/27 12:41:04;;;;;;;6.68;3.75;;;19.60;99.90;;;;;;21156944;28;20038;-79
2022/04/27 12:51:07;;;;;;;6.77;3.90;;;20.00;99.90;;;;;;21118221;28;20036;-77
2022/04/27 13:01:27;;;;;;;3.85;2.85;;;19.20;99.90;;;;;;21080477;28;20547;-78
2022/04/27 13:21:47;;;;;;;3.80;2.80;;;20.30;99.90;;;;;;21243548;27;20046;-78
2022/04/27 13:31:48;;;;;;;4.70;2.40;;;20.00;99.90;;;;;;21255914;27;20420;-78
2022/04/27 13:41:49;;;;;;;3.50;1.90;;;19.80;99.90;;;;;;21255315;27;20359;-78
2022/04/27 13:51:51;;;;;;;6.30;2.70;;;20.10;99.90;;;;;;21175438;27;20367;-78
2022/04/27 14:01:52;;;;;;;3.78;2.72;;;20.10;99.90;;;;;;21144196;28;20478;-80
2022/04/27 14:22:12;;;;;;;3.17;2.33;;;20.00;99.90;;;;;;21147412;27;20035;-79
2022/04/27 14:32:13;;;;;;;4.00;2.40;;;20.00;99.90;;;;;;21154875;28;20138;-80
2022/04/27 14:42:14;;;;;;;3.67;2.67;;;20.20;99.90;;;;;;21109452;28;20117;-79
2022/04/27 14:52:15;;;;;;;4.63;2.93;;;19.80;99.90;;;;;;21184590;27;20042;-80
2022/04/27 15:02:19;;;;;;;4.10;2.57;;;19.70;99.90;;;;;;21202379;27;20401;-79
2022/04/27 15:12:20;;;;;;;3.28;2.15;;;19.10;99.90;;;;;;21210530;27;20038;-79
2022/04/27 15:32:41;;;;;;;6.32;2.38;;;18.90;99.90;;;;;;21168337;28;20031;-79
2022/04/27 15:42:41;;;;;;;;;;;18.70;99.90;;;;;;21201110;28;20034;-80
2022/04/27 15:52:42;;;;;;;3.00;1.57;;;18.20;99.90;;;;;;21194135;28;19912;-80
2022/04/27 16:02:44;;;;;;;2.93;1.70;;;18.00;99.90;;;;;;21188164;28;20289;-80
2022/04/27 16:12:46;;;;;;;5.28;1.58;;;17.80;99.90;;;;;;21184836;28;20315;-80
2022/04/27 16:33:06;;;;;;;3.05;2.10;;;17.10;99.90;;;;;;21185652;28;20039;-80
2022/04/27 16:43:12;;;;;;;4.93;2.93;;;16.90;99.90;;;;;;21189253;28;20031;-77
2022/04/27 16:53:13;;;;;;;3.78;2.65;;;16.50;99.90;;;;;;21189321;28;20035;-79
2022/04/27 17:03:14;;;;;;;2.43;1.93;;;16.10;99.90;;;;;;21186706;28;20031;-77
2022/04/27 17:13:16;;;;;;;3.92;2.25;;;15.90;99.90;;;;;;21172955;28;20055;-76
2022/04/27 17:23:18;;;;;;;3.13;1.70;;;15.70;99.90;;;;;;21234547;27;20034;-76
2022/04/27 17:33:19;;;;;;;3.80;2.05;;;15.50;99.90;;;;;;21255614;27;20027;-76
2022/04/27 17:43:21;;;;;;;4.00;1.90;;;15.30;99.90;;;;;;21254777;27;20127;-76
2022/04/27 17:53:21;;;;;;;;;;;15.00;99.90;;;;;;21253469;27;20035;-76
2022/04/27 18:03:22;;;;;;;5.85;3.47;;;14.70;99.90;;;;;;21126404;22;19920;-73
2022/04/27 18:13:23;;;;;;;3.80;2.37;;;14.50;99.90;;;;;;21022108;28;20086;-74
2022/04/27 18:23:24;;;;;;;3.67;2.10;;;14.10;99.90;;;;;;20917112;28;20033;-74
2022/04/27 18:33:26;;;;;;;5.33;2.37;;;13.70;99.90;;;;;;20896161;28;20043;-75
2022/04/27 18:53:47;;;;;;;5.72;2.22;;;13.20;99.90;;;;;;20912258;28;20037;-73
2022/04/27 19:03:50;;;;;;;4.03;2.27;;;13.10;99.90;;;;;;20911197;28;20040;-74
2022/04/27 19:13:52;;;;;;;4.68;2.35;;;12.70;99.90;;;;;;20910863;28;20288;-73
2022/04/27 19:23:52;;;;;;;2.10;1.50;;;12.40;99.90;;;;;;20909840;28;20525;-73
2022/04/27 19:33:53;;;;;;;2.00;1.67;;;12.30;99.90;;;;;;20891891;28;20038;-73
2022/04/27 19:43:54;;;;;;;3.13;1.97;;;12.20;99.90;;;;;;20908640;28;20025;-72
2022/04/27 19:53:56;;;;;;;2.67;1.70;;;12.10;99.90;;;;;;20908054;28;20044;-73
2022/04/27 20:03:57;;;;;;;2.55;1.88;;;11.90;99.90;;;;;;20907076;28;20072;-73
2022/04/27 20:13:58;;;;;;;;;;;11.70;99.90;;;;;;20957396;28;20029;-73
2022/04/27 20:23:59;;;;;;;2.95;2.17;;;11.50;99.90;;;;;;20914819;28;19919;-73
2022/04/27 20:34:00;;;;;;;3.33;2.00;;;11.40;99.90;;;;;;20927055;28;20036;-73
2022/04/27 20:44:02;;;;;;;3.20;2.17;;;11.20;99.90;;;;;;20962079;28;20025;-75
2022/04/27 20:54:02;;;;;;;2.75;1.85;;;11.00;99.90;;;;;;20961359;28;20169;-73
2022/04/27 21:04:03;;;;;;;3.60;1.83;;;10.70;99.90;;;;;;20930628;28;20594;-74
2022/04/27 21:14:05;;;;;;;2.57;1.90;;;10.60;99.90;;;;;;20920953;28;20027;-73
2022/04/27 21:24:07;;;;;;;2.23;1.60;;;10.30;99.90;;;;;;20955393;28;20508;-73
2022/04/27 21:34:08;;;;;;;3.00;1.98;;;10.10;99.90;;;;;;20965135;28;20289;-73
2022/04/27 21:44:08;;;;;;;3.87;2.33;;;10.10;99.90;;;;;;20951964;28;20582;-73
2022/04/27 21:54:10;;;;;;;3.77;2.50;;;9.70;99.90;;;;;;20939344;28;20032;-74
2022/04/27 22:04:24;;;;;;;4.20;2.60;;;9.50;99.90;;;;;;20938441;28;20477;-73
2022/04/27 22:14:25;;;;;;;3.83;2.58;;;9.30;99.90;;;;;;20930135;28;20040;-74
2022/04/27 22:24:26;;;;;;;5.13;2.97;;;9.00;99.90;;;;;;20954679;28;20036;-73
2022/04/27 22:34:27;;;;;;;5.80;3.67;;;9.20;99.90;;;;;;20953822;28;20490;-73
2022/04/27 22:44:28;;;;;;;4.37;3.30;;;9.30;99.90;;;;;;20937706;28;20036;-74
2022/04/27 22:54:31;;;;;;;4.20;2.97;;;9.20;99.90;;;;;;20912045;28;20056;-74
2022/04/27 23:04:32;;;;;;;7.00;3.70;;;9.00;99.90;;;;;;20911618;28;20040;-73
2022/04/27 23:14:32;;;;;;;7.03;3.77;;;9.00;99.90;;;;;;20911057;28;20407;-73
2022/04/27 23:24:33;;;;;;;6.03;3.97;;;8.70;99.90;;;;;;20910179;28;20035;-74
2022/04/27 23:34:34;;;;;;;5.83;3.97;;;8.50;99.90;;;;;;20891843;28;20517;-74
2022/04/27 23:44:41;;;;;;;7.57;4.23;;;8.40;99.90;;;;;;20911614;28;20029;-74
2022/04/27 23:54:42;;;;;;;8.70;5.03;;;8.40;99.90;;;;;;20908474;28;20021;-73
